createdAt,value
2019-02-19T00:00:33.023Z,943.76
2019-02-19T00:01:41.084Z,943.77
2019-02-19T00:02:49.148Z,943.78
2019-02-19T00:03:57.289Z,943.79
2019-02-19T00:05:05.271Z,943.80
2019-02-19T00:06:13.301Z,943.77
2019-02-19T00:07:21.356Z,943.75
2019-02-19T00:08:29.442Z,943.77
2019-02-19T00:09:37.467Z,943.74
2019-02-19T00:10:45.528Z,943.77
2019-02-19T00:11:53.555Z,943.76
2019-02-19T00:13:01.619Z,943.78
2019-02-19T00:14:09.686Z,943.77
2019-02-19T00:15:17.730Z,943.80
2019-02-19T00:16:25.822Z,943.77
2019-02-19T00:17:33.818Z,943.78
2019-02-19T00:18:41.973Z,943.75
2019-02-19T00:19:49.942Z,943.79
2019-02-19T00:20:58.011Z,943.77
2019-02-19T00:22:06.049Z,943.72
2019-02-19T00:23:14.095Z,943.76
2019-02-19T00:24:22.206Z,943.76
2019-02-19T00:25:30.191Z,943.74
2019-02-19T00:26:38.266Z,943.76
2019-02-19T00:27:46.297Z,943.75
2019-02-19T00:28:54.361Z,943.73
2019-02-19T00:30:02.830Z,943.74
2019-02-19T00:31:10.466Z,943.78
2019-02-19T00:32:18.536Z,943.77
2019-02-19T00:33:26.559Z,943.82
2019-02-19T00:34:34.697Z,943.84
2019-02-19T00:35:42.760Z,943.81
2019-02-19T00:36:50.738Z,943.78
2019-02-19T00:37:58.776Z,943.77
2019-02-19T00:39:06.835Z,943.74
2019-02-19T00:40:14.862Z,943.76
2019-02-19T00:41:23.027Z,943.79
2019-02-19T00:42:30.979Z,943.80
2019-02-19T00:43:39.038Z,943.84
2019-02-19T00:44:47.087Z,943.83
2019-02-19T00:45:55.146Z,943.85
2019-02-19T00:47:03.285Z,943.84
2019-02-19T00:48:11.232Z,943.87
2019-02-19T00:49:19.296Z,943.83
2019-02-19T00:50:27.802Z,943.81
2019-02-19T00:51:35.405Z,943.82
2019-02-19T00:52:43.554Z,943.83
2019-02-19T00:53:51.503Z,943.84
2019-02-19T00:54:59.571Z,943.81
2019-02-19T00:56:07.600Z,943.84
2019-02-19T00:57:15.655Z,943.84
2019-02-19T00:58:23.799Z,943.84
2019-02-19T00:59:31.761Z,943.83
2019-02-19T01:00:39.807Z,943.87
2019-02-19T01:01:47.879Z,943.91
2019-02-19T01:02:56.029Z,943.90
2019-02-19T01:04:03.969Z,943.94
2019-02-19T01:05:12.006Z,943.96
2019-02-19T01:06:20.191Z,943.95
2019-02-19T01:07:28.134Z,944.00
2019-02-19T01:08:36.279Z,944.01
2019-02-19T01:09:44.244Z,944.03
2019-02-19T01:10:52.328Z,944.01
2019-02-19T01:12:00.389Z,944.02
2019-02-19T01:13:08.389Z,944.03
2019-02-19T01:14:16.527Z,944.01
2019-02-19T01:15:25.595Z,943.98
2019-02-19T01:16:32.557Z,943.97
2019-02-19T01:17:40.579Z,943.94
2019-02-19T01:18:48.645Z,943.96
2019-02-19T01:19:56.799Z,943.90
2019-02-19T01:21:04.767Z,943.89
2019-02-19T01:22:12.924Z,943.87
2019-02-19T01:23:20.885Z,943.89
2019-02-19T01:24:28.899Z,943.89
2019-02-19T01:25:37.062Z,943.89
2019-02-19T01:26:45.020Z,943.90
2019-02-19T01:27:53.078Z,943.90
2019-02-19T01:29:01.111Z,943.91
2019-02-19T01:30:09.170Z,943.96
2019-02-19T01:31:17.324Z,943.94
2019-02-19T01:32:25.281Z,943.97
2019-02-19T01:33:33.325Z,943.96
2019-02-19T01:34:41.390Z,943.96
2019-02-19T01:35:49.423Z,943.96
2019-02-19T01:36:57.587Z,943.94
2019-02-19T01:38:05.620Z,943.92
2019-02-19T01:39:13.581Z,943.94
2019-02-19T01:40:21.637Z,943.93
2019-02-19T01:41:29.730Z,943.94
2019-02-19T01:42:37.811Z,943.85
2019-02-19T01:43:45.811Z,943.87
2019-02-19T01:44:53.845Z,943.87
2019-02-19T01:46:01.921Z,943.86
2019-02-19T01:47:09.971Z,943.84
2019-02-19T01:48:18.054Z,943.86
2019-02-19T01:49:26.084Z,943.90
2019-02-19T01:50:34.133Z,943.91
2019-02-19T01:51:42.165Z,943.93
2019-02-19T01:52:50.321Z,943.91
2019-02-19T01:53:58.265Z,943.89
2019-02-19T01:55:06.315Z,943.87
2019-02-19T01:56:14.386Z,943.86
2019-02-19T01:57:22.422Z,943.87
2019-02-19T01:58:30.494Z,943.92
2019-02-19T01:59:38.536Z,943.90
2019-02-19T02:00:46.585Z,943.90
2019-02-19T02:01:54.661Z,943.94
2019-02-19T02:03:02.788Z,943.98
2019-02-19T02:04:10.752Z,943.99
2019-02-19T02:05:18.802Z,943.94
2019-02-19T02:06:26.843Z,943.91
2019-02-19T02:07:35.044Z,943.89
2019-02-19T02:08:42.954Z,943.90
2019-02-19T02:09:50.999Z,943.91
2019-02-19T02:10:59.057Z,943.93
2019-02-19T02:12:07.114Z,943.90
2019-02-19T02:13:15.606Z,943.89
2019-02-19T02:14:23.218Z,943.88
2019-02-19T02:15:31.252Z,943.86
2019-02-19T02:16:39.311Z,943.88
2019-02-19T02:17:47.369Z,943.90
2019-02-19T02:18:55.535Z,943.89
2019-02-19T02:20:03.479Z,943.90
2019-02-19T02:21:11.511Z,943.87
2019-02-19T02:22:19.581Z,943.91
2019-02-19T02:23:27.725Z,943.90
2019-02-19T02:24:35.773Z,943.89
2019-02-19T02:25:43.726Z,943.91
2019-02-19T02:26:51.774Z,943.91
2019-02-19T02:27:59.825Z,943.92
2019-02-19T02:29:07.891Z,943.92
2019-02-19T02:30:16.036Z,943.94
2019-02-19T02:31:23.989Z,943.95
2019-02-19T02:32:32.045Z,943.97
2019-02-19T02:33:40.093Z,943.95
2019-02-19T02:34:48.141Z,943.97
2019-02-19T02:35:56.651Z,944.00
2019-02-19T02:37:04.250Z,944.00
2019-02-19T02:38:12.316Z,943.99
2019-02-19T02:39:20.414Z,943.97
2019-02-19T02:40:28.414Z,943.96
2019-02-19T02:41:36.551Z,943.93
2019-02-19T02:42:44.510Z,943.98
2019-02-19T02:43:52.565Z,943.94
2019-02-19T02:45:00.616Z,943.96
2019-02-19T02:46:08.654Z,943.92
2019-02-19T02:47:16.824Z,943.94
2019-02-19T02:48:24.779Z,943.90
2019-02-19T02:49:32.822Z,943.93
2019-02-19T02:50:40.912Z,943.90
2019-02-19T02:51:48.930Z,943.94
2019-02-19T02:52:57.060Z,943.93
2019-02-19T02:54:05.034Z,943.95
2019-02-19T02:55:13.178Z,943.94
2019-02-19T02:56:21.124Z,943.93
2019-02-19T02:57:29.294Z,943.93
2019-02-19T02:58:37.230Z,943.91
2019-02-19T02:59:45.282Z,943.87
2019-02-19T03:00:53.334Z,943.84
2019-02-19T03:02:01.382Z,943.86
2019-02-19T03:03:09.526Z,943.89
2019-02-19T03:04:17.491Z,943.89
2019-02-19T03:05:25.568Z,943.86
2019-02-19T03:06:33.598Z,943.84
2019-02-19T03:07:41.634Z,943.82
2019-02-19T03:08:49.818Z,943.76
2019-02-19T03:09:57.757Z,943.75
2019-02-19T03:11:05.910Z,943.75
2019-02-19T03:12:13.864Z,943.78
2019-02-19T03:13:21.914Z,943.76
2019-02-19T03:14:30.245Z,943.78
2019-02-19T03:15:38.010Z,943.81
2019-02-19T03:16:46.077Z,943.83
2019-02-19T03:17:54.111Z,943.85
2019-02-19T03:19:02.174Z,943.86
2019-02-19T03:20:10.314Z,943.88
2019-02-19T03:21:18.278Z,943.87
2019-02-19T03:22:26.336Z,943.88
2019-02-19T03:23:34.371Z,943.90
2019-02-19T03:24:42.448Z,943.89
2019-02-19T03:25:50.588Z,943.87
2019-02-19T03:26:58.647Z,943.86
2019-02-19T03:28:06.591Z,943.87
2019-02-19T03:29:14.654Z,943.87
2019-02-19T03:30:22.693Z,943.90
2019-02-19T03:31:30.843Z,943.93
2019-02-19T03:32:38.960Z,943.95
2019-02-19T03:33:46.855Z,943.96
2019-02-19T03:34:54.896Z,943.96
2019-02-19T03:36:02.947Z,943.90
2019-02-19T03:37:11.093Z,943.91
2019-02-19T03:38:19.058Z,943.89
2019-02-19T03:39:27.122Z,943.94
2019-02-19T03:40:35.200Z,943.96
2019-02-19T03:41:43.187Z,944.00
2019-02-19T03:42:51.354Z,943.99
2019-02-19T03:43:59.303Z,944.01
2019-02-19T03:45:07.386Z,944.03
2019-02-19T03:46:15.434Z,944.06
2019-02-19T03:47:23.473Z,944.07
2019-02-19T03:48:31.526Z,944.09
2019-02-19T03:49:39.569Z,944.09
2019-02-19T03:50:47.628Z,944.12
2019-02-19T03:51:55.702Z,944.11
2019-02-19T03:53:03.774Z,944.11
2019-02-19T03:54:11.794Z,944.10
2019-02-19T03:55:19.843Z,944.10
2019-02-19T03:56:27.891Z,944.11
2019-02-19T03:57:36.058Z,944.09
2019-02-19T03:58:43.997Z,944.12
2019-02-19T03:59:52.045Z,944.08
2019-02-19T04:01:00.105Z,944.08
2019-02-19T04:02:08.200Z,944.10
2019-02-19T04:03:16.282Z,944.10
2019-02-19T04:04:24.258Z,944.04
2019-02-19T04:05:32.299Z,943.97
2019-02-19T04:06:40.362Z,944.00
2019-02-19T04:07:48.408Z,944.06
2019-02-19T04:08:56.553Z,944.04
2019-02-19T04:10:04.500Z,944.04
2019-02-19T04:11:12.565Z,944.09
2019-02-19T04:12:20.622Z,944.12
2019-02-19T04:13:28.684Z,944.11
2019-02-19T04:14:36.828Z,944.10
2019-02-19T04:15:44.789Z,944.08
2019-02-19T04:16:52.845Z,944.02
2019-02-19T04:18:00.895Z,943.99
2019-02-19T04:19:08.964Z,944.00
2019-02-19T04:20:17.099Z,944.01
2019-02-19T04:21:25.056Z,944.01
2019-02-19T04:22:33.116Z,944.04
2019-02-19T04:23:41.157Z,944.03
2019-02-19T04:24:49.214Z,944.08
2019-02-19T04:25:57.347Z,944.10
2019-02-19T04:27:05.289Z,944.05
2019-02-19T04:28:13.451Z,944.09
2019-02-19T04:29:21.402Z,944.09
2019-02-19T04:30:29.469Z,944.14
2019-02-19T04:31:37.607Z,944.14
2019-02-19T04:32:45.562Z,944.14
2019-02-19T04:33:53.602Z,944.15
2019-02-19T04:35:01.691Z,944.14
2019-02-19T04:36:09.725Z,944.14
2019-02-19T04:37:17.915Z,944.17
2019-02-19T04:38:25.845Z,944.15
2019-02-19T04:39:33.895Z,944.15
2019-02-19T04:40:41.935Z,944.18
2019-02-19T04:41:49.987Z,944.13
2019-02-19T04:42:58.152Z,944.15
2019-02-19T04:44:06.191Z,944.17
2019-02-19T04:45:14.144Z,944.18
2019-02-19T04:46:31.040Z,944.17
2019-02-19T04:47:30.344Z,944.16
2019-02-19T04:48:38.284Z,944.13
2019-02-19T04:49:46.361Z,944.14
2019-02-19T04:50:54.397Z,944.16
2019-02-19T04:52:02.450Z,944.15
2019-02-19T04:53:10.600Z,944.16
2019-02-19T04:54:18.601Z,944.16
2019-02-19T04:55:26.633Z,944.14
2019-02-19T04:56:34.678Z,944.17
2019-02-19T04:57:42.732Z,944.15
2019-02-19T04:58:50.879Z,944.17
2019-02-19T04:59:58.935Z,944.15
2019-02-19T05:01:06.886Z,944.19
2019-02-19T05:02:14.928Z,944.17
2019-02-19T05:03:22.989Z,944.14
2019-02-19T05:04:31.142Z,944.14
2019-02-19T05:05:41.269Z,944.16
2019-02-19T05:06:47.154Z,944.19
2019-02-19T05:07:58.010Z,944.18
2019-02-19T05:09:03.265Z,944.16
2019-02-19T05:10:11.384Z,944.16
2019-02-19T05:11:19.354Z,944.19
2019-02-19T05:12:27.389Z,944.15
2019-02-19T05:13:35.455Z,944.17
2019-02-19T05:14:43.523Z,944.15
2019-02-19T05:15:51.712Z,944.18
2019-02-19T05:16:59.625Z,944.14
2019-02-19T05:18:07.683Z,944.18
2019-02-19T05:19:15.759Z,944.19
2019-02-19T05:20:23.816Z,944.22
2019-02-19T05:21:31.966Z,944.22
2019-02-19T05:22:39.902Z,944.17
2019-02-19T05:23:47.933Z,944.20
2019-02-19T05:24:55.988Z,944.17
2019-02-19T05:26:04.047Z,944.17
2019-02-19T05:27:12.168Z,944.18
2019-02-19T05:28:20.148Z,944.14
2019-02-19T05:29:28.196Z,944.14
2019-02-19T05:30:36.383Z,944.18
2019-02-19T05:31:44.493Z,944.15
2019-02-19T05:32:52.737Z,944.20
2019-02-19T05:34:00.445Z,944.14
2019-02-19T05:35:08.616Z,944.17
2019-02-19T05:36:16.501Z,944.17
2019-02-19T05:37:24.572Z,944.18
2019-02-19T05:38:32.608Z,944.18
2019-02-19T05:39:40.663Z,944.23
2019-02-19T05:40:48.729Z,944.22
2019-02-19T05:41:56.783Z,944.21
2019-02-19T05:43:04.938Z,944.23
2019-02-19T05:44:12.890Z,944.25
2019-02-19T05:45:20.941Z,944.25
2019-02-19T05:46:28.984Z,944.25
2019-02-19T05:47:37.132Z,944.22
2019-02-19T05:48:45.085Z,944.27
2019-02-19T05:49:53.158Z,944.23
2019-02-19T05:51:01.199Z,944.28
2019-02-19T05:52:09.278Z,944.25
2019-02-19T05:53:17.408Z,944.29
2019-02-19T05:54:25.358Z,944.29
2019-02-19T05:55:33.424Z,944.29
2019-02-19T05:56:41.451Z,944.30
2019-02-19T05:57:50.018Z,944.25
2019-02-19T05:58:57.579Z,944.27
2019-02-19T06:00:05.628Z,944.26
2019-02-19T06:01:13.676Z,944.26
2019-02-19T06:02:21.711Z,944.29
2019-02-19T06:03:29.795Z,944.29
2019-02-19T06:04:37.835Z,944.26
2019-02-19T06:05:45.898Z,944.28
2019-02-19T06:06:53.953Z,944.29
2019-02-19T06:08:02.034Z,944.30
2019-02-19T06:09:10.055Z,944.30
2019-02-19T06:10:18.097Z,944.37
2019-02-19T06:11:26.537Z,944.32
2019-02-19T06:12:34.300Z,944.33
2019-02-19T06:13:42.238Z,944.34
2019-02-19T06:14:50.297Z,944.35
2019-02-19T06:15:58.376Z,944.37
2019-02-19T06:17:06.416Z,944.36
2019-02-19T06:18:14.966Z,944.36
2019-02-19T06:19:22.518Z,944.36
2019-02-19T06:20:30.578Z,944.45
2019-02-19T06:21:38.637Z,944.44
2019-02-19T06:22:46.787Z,944.47
2019-02-19T06:23:54.734Z,944.44
2019-02-19T06:25:02.788Z,944.46
2019-02-19T06:26:10.829Z,944.48
2019-02-19T06:27:18.889Z,944.46
2019-02-19T06:28:26.999Z,944.49
2019-02-19T06:29:35.029Z,944.50
2019-02-19T06:30:43.037Z,944.50
2019-02-19T06:31:51.100Z,944.50
2019-02-19T06:32:59.154Z,944.50
2019-02-19T06:34:07.310Z,944.57
2019-02-19T06:35:15.265Z,944.57
2019-02-19T06:36:23.292Z,944.61
2019-02-19T06:37:31.344Z,944.65
2019-02-19T06:38:39.413Z,944.65
2019-02-19T06:39:47.576Z,944.62
2019-02-19T06:40:55.517Z,944.65
2019-02-19T06:42:03.585Z,944.66
2019-02-19T06:43:11.640Z,944.67
2019-02-19T06:44:19.679Z,944.65
2019-02-19T06:45:27.845Z,944.67
2019-02-19T06:46:35.789Z,944.71
2019-02-19T06:47:43.830Z,944.71
2019-02-19T06:48:51.933Z,944.69
2019-02-19T06:50:00.034Z,944.71
2019-02-19T06:51:08.054Z,944.76
2019-02-19T06:52:16.050Z,944.78
2019-02-19T06:53:24.553Z,944.80
2019-02-19T06:54:32.209Z,944.83
2019-02-19T06:55:40.232Z,944.84
2019-02-19T06:56:48.344Z,944.84
2019-02-19T06:57:56.296Z,944.89
2019-02-19T06:59:04.358Z,944.87
2019-02-19T07:00:12.481Z,944.90
2019-02-19T07:01:20.811Z,944.84
2019-02-19T07:02:28.581Z,944.88
2019-02-19T07:03:36.566Z,944.89
2019-02-19T07:04:44.637Z,944.91
2019-02-19T07:05:52.684Z,944.93
2019-02-19T07:07:00.715Z,944.96
2019-02-19T07:08:08.852Z,944.95
2019-02-19T07:09:16.953Z,945.00
2019-02-19T07:10:24.919Z,945.02
2019-02-19T07:11:32.940Z,945.03
2019-02-19T07:12:41.062Z,945.02
2019-02-19T07:13:49.040Z,945.02
2019-02-19T07:14:57.116Z,944.99
2019-02-19T07:16:05.147Z,945.01
2019-02-19T07:17:15.606Z,944.99
2019-02-19T07:18:21.345Z,945.02
2019-02-19T07:19:29.311Z,945.03
2019-02-19T07:20:37.362Z,945.03
2019-02-19T07:21:45.424Z,945.03
2019-02-19T07:22:53.472Z,945.09
2019-02-19T07:24:04.318Z,945.09
2019-02-19T07:25:09.680Z,945.06
2019-02-19T07:26:17.632Z,945.13
2019-02-19T07:27:25.683Z,945.20
2019-02-19T07:28:33.778Z,945.20
2019-02-19T07:29:41.905Z,945.19
2019-02-19T07:30:49.844Z,945.19
2019-02-19T07:31:57.901Z,945.17
2019-02-19T07:33:06.031Z,945.16
2019-02-19T07:34:14.013Z,945.21
2019-02-19T07:35:22.158Z,945.21
2019-02-19T07:36:30.114Z,945.22
2019-02-19T07:37:38.182Z,945.24
2019-02-19T07:38:46.244Z,945.26
2019-02-19T07:39:54.287Z,945.24
2019-02-19T07:41:02.430Z,945.23
2019-02-19T07:42:10.383Z,945.29
2019-02-19T07:43:18.430Z,945.35
2019-02-19T07:44:26.489Z,945.38
2019-02-19T07:45:34.554Z,945.38
2019-02-19T07:46:42.692Z,945.38
2019-02-19T07:47:50.665Z,945.39
2019-02-19T07:48:58.720Z,945.42
2019-02-19T07:50:06.769Z,945.46
2019-02-19T07:51:14.833Z,945.48
2019-02-19T07:52:22.976Z,945.48
2019-02-19T07:53:30.940Z,945.32
2019-02-19T07:54:38.988Z,945.32
2019-02-19T07:55:47.046Z,945.34
2019-02-19T07:56:55.351Z,945.36
2019-02-19T07:58:03.207Z,945.26
2019-02-19T07:59:11.220Z,945.26
2019-02-19T08:00:19.277Z,945.27
2019-02-19T08:01:27.328Z,945.28
2019-02-19T08:02:35.466Z,945.28
2019-02-19T08:03:43.442Z,945.24
2019-02-19T08:04:51.482Z,945.28
2019-02-19T08:05:59.542Z,945.27
2019-02-19T08:07:07.590Z,945.29
2019-02-19T08:08:15.716Z,945.29
2019-02-19T08:09:23.711Z,945.28
2019-02-19T08:10:31.755Z,945.26
2019-02-19T08:11:39.813Z,945.30
2019-02-19T08:12:47.988Z,945.34
2019-02-19T08:13:55.992Z,945.30
2019-02-19T08:15:03.993Z,945.35
2019-02-19T08:16:12.062Z,945.36
2019-02-19T08:17:20.092Z,945.41
2019-02-19T08:18:28.225Z,945.40
2019-02-19T08:19:36.201Z,945.43
2019-02-19T08:20:44.274Z,945.43
2019-02-19T08:21:52.306Z,945.43
2019-02-19T08:23:00.488Z,945.49
2019-02-19T08:24:08.445Z,945.45
2019-02-19T08:25:16.493Z,945.48
2019-02-19T08:26:24.552Z,945.44
2019-02-19T08:27:32.653Z,945.46
2019-02-19T08:28:40.715Z,945.49
2019-02-19T08:29:48.728Z,945.50
2019-02-19T08:30:56.759Z,945.47
2019-02-19T08:32:04.874Z,945.49
2019-02-19T08:33:12.885Z,945.45
2019-02-19T08:34:20.938Z,945.43
2019-02-19T08:35:28.994Z,945.40
2019-02-19T08:36:37.061Z,945.43
2019-02-19T08:37:45.147Z,945.41
2019-02-19T08:38:53.268Z,945.42
2019-02-19T08:40:01.228Z,945.45
2019-02-19T08:41:09.285Z,945.40
2019-02-19T08:42:17.328Z,945.42
2019-02-19T08:43:25.487Z,945.43
2019-02-19T08:44:33.565Z,945.45
2019-02-19T08:45:41.549Z,945.49
2019-02-19T08:46:49.582Z,945.50
2019-02-19T08:47:57.638Z,945.55
2019-02-19T08:49:05.692Z,945.56
2019-02-19T08:50:13.839Z,945.57
2019-02-19T08:51:21.797Z,945.57
2019-02-19T08:52:29.862Z,945.59
2019-02-19T08:53:37.920Z,945.56
2019-02-19T08:54:45.963Z,945.55
2019-02-19T08:55:54.145Z,945.54
2019-02-19T08:57:02.070Z,945.55
2019-02-19T08:58:10.136Z,945.55
2019-02-19T08:59:18.281Z,945.57
2019-02-19T09:00:26.271Z,945.55
2019-02-19T09:01:34.410Z,945.53
2019-02-19T09:02:42.412Z,945.57
2019-02-19T09:03:50.415Z,945.57
2019-02-19T09:04:58.505Z,945.53
2019-02-19T09:06:06.530Z,945.55
2019-02-19T09:07:14.686Z,945.58
2019-02-19T09:08:22.648Z,945.59
2019-02-19T09:09:30.693Z,945.61
2019-02-19T09:10:38.768Z,945.58
2019-02-19T09:11:46.837Z,945.60
2019-02-19T09:12:54.973Z,945.60
2019-02-19T09:14:03.001Z,945.67
2019-02-19T09:15:11.348Z,945.67
2019-02-19T09:16:19.060Z,945.68
2019-02-19T09:17:27.111Z,945.71
2019-02-19T09:18:35.171Z,945.67
2019-02-19T09:19:43.232Z,945.67
2019-02-19T09:20:51.285Z,945.71
2019-02-19T09:21:59.345Z,945.73
2019-02-19T09:23:07.445Z,945.71
2019-02-19T09:24:15.471Z,945.76
2019-02-19T09:25:23.503Z,945.76
2019-02-19T09:26:31.550Z,945.80
2019-02-19T09:27:39.680Z,945.76
2019-02-19T09:28:48.758Z,945.79
2019-02-19T09:29:55.774Z,945.78
2019-02-19T09:31:03.896Z,945.78
2019-02-19T09:32:11.836Z,945.78
2019-02-19T09:33:19.984Z,945.84
2019-02-19T09:34:27.986Z,945.86
2019-02-19T09:35:36.031Z,945.99
2019-02-19T09:36:44.092Z,945.98
2019-02-19T09:37:52.244Z,946.00
2019-02-19T09:39:00.193Z,945.96
2019-02-19T09:40:08.265Z,945.96
2019-02-19T09:41:16.308Z,945.96
2019-02-19T09:42:24.445Z,945.92
2019-02-19T09:43:35.404Z,945.93
2019-02-19T09:44:40.493Z,945.93
2019-02-19T09:45:48.560Z,945.92
2019-02-19T09:46:56.684Z,945.95
2019-02-19T09:48:04.693Z,945.97
2019-02-19T09:49:12.832Z,945.97
2019-02-19T09:50:20.778Z,945.96
2019-02-19T09:51:28.864Z,945.96
2019-02-19T09:52:36.900Z,945.95
2019-02-19T09:53:44.972Z,945.90
2019-02-19T09:54:53.132Z,945.91
2019-02-19T09:56:01.103Z,945.88
2019-02-19T09:57:09.158Z,945.93
2019-02-19T09:58:17.202Z,945.93
2019-02-19T09:59:25.292Z,945.91
2019-02-19T10:00:33.442Z,945.92
2019-02-19T10:01:41.366Z,945.91
2019-02-19T10:02:49.509Z,945.88
2019-02-19T10:03:57.551Z,945.86
2019-02-19T10:05:05.574Z,945.85
2019-02-19T10:06:13.689Z,945.83
2019-02-19T10:07:21.684Z,945.89
2019-02-19T10:08:29.747Z,945.94
2019-02-19T10:09:37.795Z,945.92
2019-02-19T10:10:45.871Z,945.94
2019-02-19T10:11:54.030Z,945.93
2019-02-19T10:13:01.989Z,945.94
2019-02-19T10:14:10.063Z,945.91
2019-02-19T10:15:18.103Z,945.91
2019-02-19T10:16:26.183Z,945.95
2019-02-19T10:17:34.329Z,946.00
2019-02-19T10:18:42.289Z,946.00
2019-02-19T10:19:50.384Z,945.99
2019-02-19T10:20:59.713Z,946.00
2019-02-19T10:22:06.521Z,946.02
2019-02-19T10:23:14.567Z,945.99
2019-02-19T10:24:22.595Z,946.07
2019-02-19T10:25:30.662Z,946.05
2019-02-19T10:26:40.565Z,946.01
2019-02-19T10:27:46.883Z,945.99
2019-02-19T10:28:54.836Z,946.03
2019-02-19T10:30:02.896Z,946.00
2019-02-19T10:31:10.961Z,946.04
2019-02-19T10:32:19.037Z,946.03
2019-02-19T10:33:27.192Z,946.07
2019-02-19T10:34:35.139Z,946.06
2019-02-19T10:35:43.193Z,946.05
2019-02-19T10:36:51.281Z,946.06
2019-02-19T10:37:59.340Z,946.10
2019-02-19T10:39:07.487Z,946.04
2019-02-19T10:40:15.465Z,946.02
2019-02-19T10:41:23.518Z,946.06
2019-02-19T10:42:31.577Z,946.05
2019-02-19T10:43:39.649Z,946.07
2019-02-19T10:44:47.799Z,946.05
2019-02-19T10:45:55.766Z,946.06
2019-02-19T10:47:03.840Z,946.05
2019-02-19T10:48:18.715Z,946.08
2019-02-19T10:49:20.062Z,946.07
2019-02-19T10:50:28.111Z,946.11
2019-02-19T10:51:36.084Z,946.11
2019-02-19T10:52:44.141Z,946.17
2019-02-19T10:53:52.194Z,946.11
2019-02-19T10:55:00.256Z,946.12
2019-02-19T10:56:08.580Z,946.10
2019-02-19T10:57:16.372Z,946.05
2019-02-19T10:58:24.464Z,946.10
2019-02-19T10:59:32.502Z,946.03
2019-02-19T11:00:40.565Z,946.01
2019-02-19T11:01:48.739Z,945.95
2019-02-19T11:02:56.701Z,945.92
2019-02-19T11:04:04.765Z,945.91
2019-02-19T11:05:12.960Z,945.90
2019-02-19T11:06:20.878Z,945.89
2019-02-19T11:07:29.045Z,945.87
2019-02-19T11:08:36.996Z,945.86
2019-02-19T11:09:45.061Z,945.89
2019-02-19T11:10:53.117Z,945.85
2019-02-19T11:12:01.166Z,945.83
2019-02-19T11:13:09.350Z,945.84
2019-02-19T11:14:17.304Z,945.84
2019-02-19T11:15:25.374Z,945.82
2019-02-19T11:16:33.419Z,945.82
2019-02-19T11:17:41.584Z,945.80
2019-02-19T11:18:49.577Z,945.79
2019-02-19T11:19:57.596Z,945.76
2019-02-19T11:21:05.931Z,945.80
2019-02-19T11:22:13.737Z,945.79
2019-02-19T11:23:21.881Z,945.77
2019-02-19T11:24:29.845Z,945.81
2019-02-19T11:25:37.918Z,945.75
2019-02-19T11:26:45.987Z,945.77
2019-02-19T11:27:54.028Z,945.79
2019-02-19T11:29:02.178Z,945.80
2019-02-19T11:30:10.161Z,945.77
2019-02-19T11:31:18.197Z,945.79
2019-02-19T11:32:26.456Z,945.78
2019-02-19T11:33:34.368Z,945.85
2019-02-19T11:34:42.504Z,945.86
2019-02-19T11:35:50.461Z,945.83
2019-02-19T11:36:58.604Z,945.84
2019-02-19T11:38:06.582Z,945.82
2019-02-19T11:39:14.659Z,945.77
2019-02-19T11:40:22.810Z,945.71
2019-02-19T11:41:30.764Z,945.65
2019-02-19T11:42:38.799Z,945.63
2019-02-19T11:43:46.893Z,945.61
2019-02-19T11:44:54.951Z,945.56
2019-02-19T11:46:03.096Z,945.53
2019-02-19T11:47:11.110Z,945.50
2019-02-19T11:48:19.211Z,945.50
2019-02-19T11:49:27.193Z,945.47
2019-02-19T11:50:35.283Z,945.45
2019-02-19T11:51:43.416Z,945.50
2019-02-19T11:52:51.481Z,945.48
2019-02-19T11:53:59.436Z,945.44
2019-02-19T11:55:07.499Z,945.45
2019-02-19T11:56:15.554Z,945.39
2019-02-19T11:57:23.719Z,945.35
2019-02-19T11:58:31.675Z,945.38
2019-02-19T11:59:39.759Z,945.36
2019-02-19T12:00:47.808Z,945.33
2019-02-19T12:01:55.867Z,945.27
2019-02-19T12:03:03.988Z,945.30
2019-02-19T12:04:11.965Z,945.28
2019-02-19T12:05:20.029Z,945.30
2019-02-19T12:06:28.084Z,945.30
2019-02-19T12:07:36.292Z,945.28
2019-02-19T12:08:44.249Z,945.28
2019-02-19T12:09:52.298Z,945.24
2019-02-19T12:11:00.371Z,945.24
2019-02-19T12:12:08.383Z,945.22
2019-02-19T12:13:16.563Z,945.24
2019-02-19T12:14:24.521Z,945.21
2019-02-19T12:15:35.079Z,945.23
2019-02-19T12:16:40.655Z,945.21
2019-02-19T12:17:48.796Z,945.21
2019-02-19T12:18:56.781Z,945.20
2019-02-19T12:20:04.825Z,945.22
2019-02-19T12:21:12.888Z,945.23
2019-02-19T12:22:20.951Z,945.21
2019-02-19T12:23:29.145Z,945.24
2019-02-19T12:24:37.062Z,945.21
2019-02-19T12:25:45.131Z,945.20
2019-02-19T12:26:53.182Z,945.20
2019-02-19T12:28:01.239Z,945.22
2019-02-19T12:29:09.404Z,945.20
2019-02-19T12:30:17.375Z,945.16
2019-02-19T12:31:25.428Z,945.13
2019-02-19T12:32:33.481Z,945.17
2019-02-19T12:33:41.524Z,945.17
2019-02-19T12:34:49.711Z,945.17
2019-02-19T12:35:57.685Z,945.13
2019-02-19T12:37:05.736Z,945.13
2019-02-19T12:38:13.925Z,945.10
2019-02-19T12:39:21.862Z,945.08
2019-02-19T12:40:30.009Z,945.08
2019-02-19T12:41:37.980Z,945.07
2019-02-19T12:42:46.039Z,945.10
2019-02-19T12:43:54.107Z,945.05
2019-02-19T12:45:02.140Z,945.05
2019-02-19T12:46:10.323Z,945.03
2019-02-19T12:47:18.290Z,945.04
2019-02-19T12:48:26.352Z,945.00
2019-02-19T12:49:34.407Z,945.02
2019-02-19T12:50:42.474Z,945.00
2019-02-19T12:51:50.626Z,945.00
2019-02-19T12:52:58.585Z,944.96
2019-02-19T12:54:06.734Z,944.95
2019-02-19T12:55:14.696Z,944.92
2019-02-19T12:56:22.762Z,944.89
2019-02-19T12:57:30.894Z,944.94
2019-02-19T12:58:38.890Z,944.88
2019-02-19T12:59:46.983Z,944.87
2019-02-19T13:00:54.993Z,944.88
2019-02-19T13:02:03.082Z,944.85
2019-02-19T13:03:11.169Z,944.85
2019-02-19T13:04:19.196Z,944.80
2019-02-19T13:05:27.261Z,944.77
2019-02-19T13:06:35.313Z,944.74
2019-02-19T13:07:43.484Z,944.77
2019-02-19T13:08:51.444Z,944.72
2019-02-19T13:09:59.599Z,944.72
2019-02-19T13:11:07.550Z,944.75
2019-02-19T13:12:15.632Z,944.78
2019-02-19T13:13:23.797Z,944.75
2019-02-19T13:14:31.749Z,944.76
2019-02-19T13:15:39.800Z,944.74
2019-02-19T13:16:47.862Z,944.74
2019-02-19T13:17:55.929Z,944.72
2019-02-19T13:19:04.103Z,944.71
2019-02-19T13:20:12.050Z,944.68
2019-02-19T13:21:20.084Z,944.76
2019-02-19T13:22:28.193Z,944.71
2019-02-19T13:23:36.232Z,944.74
2019-02-19T13:24:44.390Z,944.73
2019-02-19T13:25:52.456Z,944.76
2019-02-19T13:27:00.410Z,944.73
2019-02-19T13:28:08.488Z,944.72
2019-02-19T13:29:16.547Z,944.73
2019-02-19T13:30:24.703Z,944.72
2019-02-19T13:31:32.652Z,944.70
2019-02-19T13:32:40.726Z,944.65
2019-02-19T13:33:48.790Z,944.63
2019-02-19T13:34:56.840Z,944.60
2019-02-19T13:36:05.006Z,944.60
2019-02-19T13:37:12.966Z,944.61
2019-02-19T13:38:21.028Z,944.56
2019-02-19T13:39:29.076Z,944.56
2019-02-19T13:40:37.140Z,944.54
2019-02-19T13:41:45.299Z,944.59
2019-02-19T13:42:53.270Z,944.55
2019-02-19T13:44:01.332Z,944.53
2019-02-19T13:45:09.390Z,944.57
2019-02-19T13:46:17.461Z,944.54
2019-02-19T13:47:25.612Z,944.51
2019-02-19T13:48:33.568Z,944.51
2019-02-19T13:49:41.604Z,944.50
2019-02-19T13:50:49.699Z,944.55
2019-02-19T13:51:57.759Z,944.58
2019-02-19T13:53:05.860Z,944.57
2019-02-19T13:54:13.876Z,944.57
2019-02-19T13:55:21.934Z,944.56
2019-02-19T13:56:30.001Z,944.58
2019-02-19T13:57:38.170Z,944.58
2019-02-19T13:58:46.126Z,944.59
2019-02-19T13:59:54.229Z,944.61
2019-02-19T14:01:02.296Z,944.53
2019-02-19T14:02:10.295Z,944.60
2019-02-19T14:03:18.463Z,944.56
2019-02-19T14:04:26.420Z,944.58
2019-02-19T14:05:34.484Z,944.58
2019-02-19T14:06:42.562Z,944.57
2019-02-19T14:07:50.596Z,944.61
2019-02-19T14:08:58.765Z,944.62